sensor_id;sensor_type;location;lat;lon;timestamp;P1;durP1;ratioP1;P2;durP2;ratioP2
21611;SDS011;47005;52.292;13.452;2023-06-19T00:00:44;12.27;;;11.05;;
21611;SDS011;47005;52.292;13.452;2023-06-19T00:03:10;12.02;;;10.80;;
21611;SDS011;47005;52.292;13.452;2023-06-19T00:05:36;15.85;;;10.60;;
21611;SDS011;47005;52.292;13.452;2023-06-19T00:08:01;11.48;;;10.27;;
21611;SDS011;47005;52.292;13.452;2023-06-19T00:10:29;12.30;;;10.88;;
21611;SDS011;47005;52.292;13.452;2023-06-19T00:12:55;11.65;;;10.43;;
21611;SDS011;47005;52.292;13.452;2023-06-19T00:15:20;13.23;;;11.82;;
21611;SDS011;47005;52.292;13.452;2023-06-19T00:17:46;11.30;;;10.10;;
21611;SDS011;47005;52.292;13.452;2023-06-19T00:20:12;13.23;;;11.82;;
21611;SDS011;47005;52.292;13.452;2023-06-19T00:22:38;14.55;;;10.20;;
21611;SDS011;47005;52.292;13.452;2023-06-19T00:25:05;11.90;;;10.70;;
21611;SDS011;47005;52.292;13.452;2023-06-19T00:27:32;14.18;;;11.23;;
21611;SDS011;47005;52.292;13.452;2023-06-19T00:29:57;11.95;;;10.75;;
21611;SDS011;47005;52.292;13.452;2023-06-19T00:32:27;11.57;;;10.20;;
21611;SDS011;47005;52.292;13.452;2023-06-19T00:34:59;12.38;;;11.07;;
21611;SDS011;47005;52.292;13.452;2023-06-19T00:37:25;13.02;;;10.55;;
21611;SDS011;47005;52.292;13.452;2023-06-19T00:39:56;12.65;;;10.68;;
21611;SDS011;47005;52.292;13.452;2023-06-19T00:42:22;13.32;;;11.68;;
21611;SDS011;47005;52.292;13.452;2023-06-19T00:44:48;14.50;;;11.45;;
21611;SDS011;47005;52.292;13.452;2023-06-19T00:47:13;12.55;;;10.60;;
21611;SDS011;47005;52.292;13.452;2023-06-19T00:49:39;12.63;;;10.75;;
21611;SDS011;47005;52.292;13.452;2023-06-19T00:52:05;13.18;;;11.77;;
21611;SDS011;47005;52.292;13.452;2023-06-19T00:54:31;12.30;;;11.05;;
21611;SDS011;47005;52.292;13.452;2023-06-19T00:56:57;13.73;;;11.15;;
21611;SDS011;47005;52.292;13.452;2023-06-19T00:59:25;11.93;;;10.73;;
21611;SDS011;47005;52.292;13.452;2023-06-19T01:01:51;13.13;;;10.70;;
21611;SDS011;47005;52.292;13.452;2023-06-19T01:04:17;12.25;;;10.95;;
21611;SDS011;47005;52.292;13.452;2023-06-19T01:09:25;14.77;;;11.10;;
21611;SDS011;47005;52.292;13.452;2023-06-19T01:11:57;13.23;;;11.82;;
21611;SDS011;47005;52.292;13.452;2023-06-19T01:14:35;12.07;;;10.77;;
21611;SDS011;47005;52.292;13.452;2023-06-19T01:17:05;12.20;;;10.90;;
21611;SDS011;47005;52.292;13.452;2023-06-19T01:19:32;12.45;;;11.18;;
21611;SDS011;47005;52.292;13.452;2023-06-19T01:22:00;12.90;;;11.60;;
21611;SDS011;47005;52.292;13.452;2023-06-19T01:24:27;12.40;;;10.18;;
21611;SDS011;47005;52.292;13.452;2023-06-19T01:26:53;11.77;;;10.52;;
21611;SDS011;47005;52.292;13.452;2023-06-19T01:29:19;14.13;;;11.90;;
21611;SDS011;47005;52.292;13.452;2023-06-19T01:34:16;14.32;;;11.23;;
21611;SDS011;47005;52.292;13.452;2023-06-19T01:36:44;12.40;;;10.82;;
21611;SDS011;47005;52.292;13.452;2023-06-19T01:39:13;13.23;;;11.60;;
21611;SDS011;47005;52.292;13.452;2023-06-19T01:41:40;12.07;;;10.55;;
21611;SDS011;47005;52.292;13.452;2023-06-19T01:44:07;13.25;;;11.80;;
21611;SDS011;47005;52.292;13.452;2023-06-19T01:46:34;11.55;;;10.07;;
21611;SDS011;47005;52.292;13.452;2023-06-19T01:48:59;13.85;;;10.60;;
21611;SDS011;47005;52.292;13.452;2023-06-19T01:51:25;14.75;;;11.27;;
21611;SDS011;47005;52.292;13.452;2023-06-19T01:53:51;13.02;;;11.63;;
21611;SDS011;47005;52.292;13.452;2023-06-19T01:56:16;12.98;;;11.63;;
21611;SDS011;47005;52.292;13.452;2023-06-19T01:58:42;13.52;;;11.73;;
21611;SDS011;47005;52.292;13.452;2023-06-19T02:01:07;13.73;;;12.18;;
21611;SDS011;47005;52.292;13.452;2023-06-19T02:03:33;17.00;;;11.25;;
21611;SDS011;47005;52.292;13.452;2023-06-19T02:05:59;12.13;;;10.93;;
21611;SDS011;47005;52.292;13.452;2023-06-19T02:08:24;13.77;;;12.38;;
21611;SDS011;47005;52.292;13.452;2023-06-19T02:10:50;13.48;;;12.07;;
21611;SDS011;47005;52.292;13.452;2023-06-19T02:13:15;14.55;;;12.05;;
21611;SDS011;47005;52.292;13.452;2023-06-19T02:15:41;12.82;;;11.57;;
21611;SDS011;47005;52.292;13.452;2023-06-19T02:18:08;14.05;;;11.27;;
21611;SDS011;47005;52.292;13.452;2023-06-19T02:20:33;14.63;;;11.18;;
21611;SDS011;47005;52.292;13.452;2023-06-19T02:22:59;13.48;;;12.07;;
21611;SDS011;47005;52.292;13.452;2023-06-19T02:25:25;13.13;;;11.73;;
21611;SDS011;47005;52.292;13.452;2023-06-19T02:27:50;15.50;;;12.18;;
21611;SDS011;47005;52.292;13.452;2023-06-19T02:30:16;15.20;;;13.65;;
21611;SDS011;47005;52.292;13.452;2023-06-19T02:32:42;12.15;;;10.88;;
21611;SDS011;47005;52.292;13.452;2023-06-19T02:35:08;13.38;;;11.98;;
21611;SDS011;47005;52.292;13.452;2023-06-19T02:37:37;13.93;;;12.02;;
21611;SDS011;47005;52.292;13.452;2023-06-19T02:40:03;12.90;;;11.63;;
21611;SDS011;47005;52.292;13.452;2023-06-19T02:42:30;15.30;;;12.80;;
21611;SDS011;47005;52.292;13.452;2023-06-19T02:44:55;12.82;;;11.52;;
21611;SDS011;47005;52.292;13.452;2023-06-19T02:47:27;13.43;;;12.13;;
21611;SDS011;47005;52.292;13.452;2023-06-19T02:49:59;13.50;;;12.05;;
21611;SDS011;47005;52.292;13.452;2023-06-19T02:52:26;13.75;;;11.90;;
21611;SDS011;47005;52.292;13.452;2023-06-19T02:54:53;14.70;;;12.77;;
21611;SDS011;47005;52.292;13.452;2023-06-19T02:57:19;14.98;;;12.73;;
21611;SDS011;47005;52.292;13.452;2023-06-19T02:59:45;13.18;;;11.75;;
21611;SDS011;47005;52.292;13.452;2023-06-19T03:02:10;13.43;;;12.02;;
21611;SDS011;47005;52.292;13.452;2023-06-19T03:04:39;12.63;;;11.32;;
21611;SDS011;47005;52.292;13.452;2023-06-19T03:07:06;13.40;;;12.00;;
21611;SDS011;47005;52.292;13.452;2023-06-19T03:09:32;13.00;;;11.45;;
21611;SDS011;47005;52.292;13.452;2023-06-19T03:11:57;14.55;;;13.05;;
21611;SDS011;47005;52.292;13.452;2023-06-19T03:14:23;12.38;;;11.07;;
21611;SDS011;47005;52.292;13.452;2023-06-19T03:16:48;16.42;;;12.45;;
21611;SDS011;47005;52.292;13.452;2023-06-19T03:19:14;13.75;;;12.27;;
21611;SDS011;47005;52.292;13.452;2023-06-19T03:21:40;14.48;;;12.65;;
21611;SDS011;47005;52.292;13.452;2023-06-19T03:24:05;15.02;;;12.02;;
21611;SDS011;47005;52.292;13.452;2023-06-19T03:26:31;14.02;;;12.48;;
21611;SDS011;47005;52.292;13.452;2023-06-19T03:28:57;15.38;;;13.77;;
21611;SDS011;47005;52.292;13.452;2023-06-19T03:31:23;15.55;;;12.18;;
21611;SDS011;47005;52.292;13.452;2023-06-19T03:33:48;14.07;;;12.57;;
21611;SDS011;47005;52.292;13.452;2023-06-19T03:36:14;14.98;;;12.93;;
21611;SDS011;47005;52.292;13.452;2023-06-19T03:38:40;18.77;;;14.23;;
21611;SDS011;47005;52.292;13.452;2023-06-19T03:41:05;16.08;;;13.63;;
21611;SDS011;47005;52.292;13.452;2023-06-19T03:43:31;15.60;;;13.70;;
21611;SDS011;47005;52.292;13.452;2023-06-19T03:45:56;15.30;;;13.35;;
21611;SDS011;47005;52.292;13.452;2023-06-19T03:48:22;13.65;;;12.20;;
21611;SDS011;47005;52.292;13.452;2023-06-19T03:50:48;14.63;;;13.02;;
21611;SDS011;47005;52.292;13.452;2023-06-19T03:53:13;16.77;;;13.18;;
21611;SDS011;47005;52.292;13.452;2023-06-19T03:55:39;13.70;;;12.30;;
21611;SDS011;47005;52.292;13.452;2023-06-19T03:58:05;18.90;;;14.07;;
21611;SDS011;47005;52.292;13.452;2023-06-19T04:00:31;16.30;;;13.27;;
21611;SDS011;47005;52.292;13.452;2023-06-19T04:02:57;14.90;;;13.30;;
21611;SDS011;47005;52.292;13.452;2023-06-19T04:05:22;16.10;;;14.40;;
21611;SDS011;47005;52.292;13.452;2023-06-19T04:07:48;14.65;;;12.73;;
21611;SDS011;47005;52.292;13.452;2023-06-19T04:10:14;14.15;;;12.50;;
21611;SDS011;47005;52.292;13.452;2023-06-19T04:12:40;14.82;;;13.32;;
21611;SDS011;47005;52.292;13.452;2023-06-19T04:15:08;14.55;;;13.05;;
21611;SDS011;47005;52.292;13.452;2023-06-19T04:17:34;16.52;;;14.73;;
21611;SDS011;47005;52.292;13.452;2023-06-19T04:20:00;15.63;;;13.45;;
21611;SDS011;47005;52.292;13.452;2023-06-19T04:22:28;15.93;;;13.38;;
21611;SDS011;47005;52.292;13.452;2023-06-19T04:24:53;16.00;;;14.30;;
21611;SDS011;47005;52.292;13.452;2023-06-19T04:27:19;17.05;;;14.80;;
21611;SDS011;47005;52.292;13.452;2023-06-19T04:29:45;15.18;;;13.60;;
21611;SDS011;47005;52.292;13.452;2023-06-19T04:32:10;20.65;;;13.90;;
21611;SDS011;47005;52.292;13.452;2023-06-19T04:34:40;15.73;;;13.82;;
21611;SDS011;47005;52.292;13.452;2023-06-19T04:37:07;15.05;;;13.45;;
21611;SDS011;47005;52.292;13.452;2023-06-19T04:39:33;14.85;;;13.35;;
21611;SDS011;47005;52.292;13.452;2023-06-19T04:41:58;15.65;;;14.05;;
21611;SDS011;47005;52.292;13.452;2023-06-19T04:44:25;14.93;;;13.38;;
21611;SDS011;47005;52.292;13.452;2023-06-19T04:46:51;15.38;;;13.77;;
21611;SDS011;47005;52.292;13.452;2023-06-19T04:49:25;15.88;;;13.13;;
21611;SDS011;47005;52.292;13.452;2023-06-19T04:51:54;15.70;;;14.05;;
21611;SDS011;47005;52.292;13.452;2023-06-19T04:54:20;15.88;;;14.13;;
21611;SDS011;47005;52.292;13.452;2023-06-19T04:56:46;17.25;;;14.88;;
21611;SDS011;47005;52.292;13.452;2023-06-19T04:59:11;16.55;;;14.70;;
21611;SDS011;47005;52.292;13.452;2023-06-19T05:01:37;15.10;;;13.50;;
21611;SDS011;47005;52.292;13.452;2023-06-19T05:04:05;16.27;;;13.90;;
21611;SDS011;47005;52.292;13.452;2023-06-19T05:06:31;16.23;;;14.50;;
21611;SDS011;47005;52.292;13.452;2023-06-19T05:08:56;18.23;;;14.05;;
21611;SDS011;47005;52.292;13.452;2023-06-19T05:11:22;16.00;;;14.38;;
21611;SDS011;47005;52.292;13.452;2023-06-19T05:13:48;15.35;;;13.50;;
21611;SDS011;47005;52.292;13.452;2023-06-19T05:16:13;15.02;;;13.45;;
21611;SDS011;47005;52.292;13.452;2023-06-19T05:18:41;17.88;;;14.30;;
21611;SDS011;47005;52.292;13.452;2023-06-19T05:21:08;16.27;;;13.85;;
21611;SDS011;47005;52.292;13.452;2023-06-19T05:23:34;16.10;;;14.45;;
21611;SDS011;47005;52.292;13.452;2023-06-19T05:26:00;15.43;;;13.82;;
21611;SDS011;47005;52.292;13.452;2023-06-19T05:28:25;20.80;;;13.98;;
21611;SDS011;47005;52.292;13.452;2023-06-19T05:30:51;20.65;;;15.13;;
21611;SDS011;47005;52.292;13.452;2023-06-19T05:33:17;15.70;;;13.40;;
21611;SDS011;47005;52.292;13.452;2023-06-19T05:35:42;18.92;;;14.43;;
21611;SDS011;47005;52.292;13.452;2023-06-19T05:38:08;16.10;;;14.32;;
21611;SDS011;47005;52.292;13.452;2023-06-19T05:40:34;21.92;;;15.30;;
21611;SDS011;47005;52.292;13.452;2023-06-19T05:43:00;15.77;;;13.98;;
21611;SDS011;47005;52.292;13.452;2023-06-19T05:45:26;16.70;;;14.73;;
21611;SDS011;47005;52.292;13.452;2023-06-19T05:47:52;16.67;;;14.80;;
21611;SDS011;47005;52.292;13.452;2023-06-19T05:50:18;21.63;;;15.32;;
21611;SDS011;47005;52.292;13.452;2023-06-19T05:52:43;17.02;;;15.18;;
21611;SDS011;47005;52.292;13.452;2023-06-19T05:55:09;16.02;;;14.32;;
21611;SDS011;47005;52.292;13.452;2023-06-19T05:57:35;15.18;;;13.57;;
21611;SDS011;47005;52.292;13.452;2023-06-19T06:00:01;19.08;;;16.25;;
21611;SDS011;47005;52.292;13.452;2023-06-19T06:02:28;16.02;;;14.43;;
21611;SDS011;47005;52.292;13.452;2023-06-19T06:04:54;16.95;;;15.18;;
21611;SDS011;47005;52.292;13.452;2023-06-19T06:07:21;20.73;;;15.25;;
21611;SDS011;47005;52.292;13.452;2023-06-19T06:09:47;17.75;;;15.77;;
21611;SDS011;47005;52.292;13.452;2023-06-19T06:12:12;15.93;;;14.23;;
21611;SDS011;47005;52.292;13.452;2023-06-19T06:14:39;16.75;;;15.05;;
21611;SDS011;47005;52.292;13.452;2023-06-19T06:17:06;16.23;;;13.88;;
21611;SDS011;47005;52.292;13.452;2023-06-19T06:19:32;15.63;;;13.95;;
21611;SDS011;47005;52.292;13.452;2023-06-19T06:21:58;20.52;;;14.73;;
21611;SDS011;47005;52.292;13.452;2023-06-19T06:24:24;16.75;;;14.55;;
21611;SDS011;47005;52.292;13.452;2023-06-19T06:26:49;21.33;;;14.85;;
21611;SDS011;47005;52.292;13.452;2023-06-19T06:29:15;18.67;;;15.10;;
21611;SDS011;47005;52.292;13.452;2023-06-19T06:31:40;17.33;;;15.10;;
21611;SDS011;47005;52.292;13.452;2023-06-19T06:34:06;19.23;;;15.15;;
21611;SDS011;47005;52.292;13.452;2023-06-19T06:36:32;18.10;;;16.20;;
21611;SDS011;47005;52.292;13.452;2023-06-19T06:38:58;22.65;;;14.60;;
21611;SDS011;47005;52.292;13.452;2023-06-19T06:41:23;21.65;;;15.63;;
21611;SDS011;47005;52.292;13.452;2023-06-19T06:43:49;16.85;;;15.25;;
21611;SDS011;47005;52.292;13.452;2023-06-19T06:46:14;17.60;;;15.35;;
21611;SDS011;47005;52.292;13.452;2023-06-19T06:48:40;18.90;;;15.25;;
21611;SDS011;47005;52.292;13.452;2023-06-19T06:51:06;16.67;;;14.77;;
21611;SDS011;47005;52.292;13.452;2023-06-19T06:53:32;17.60;;;14.45;;
21611;SDS011;47005;52.292;13.452;2023-06-19T06:55:58;17.27;;;14.93;;
21611;SDS011;47005;52.292;13.452;2023-06-19T06:58:24;17.23;;;15.45;;
21611;SDS011;47005;52.292;13.452;2023-06-19T07:00:50;18.00;;;15.50;;
21611;SDS011;47005;52.292;13.452;2023-06-19T07:03:16;17.17;;;15.38;;
21611;SDS011;47005;52.292;13.452;2023-06-19T07:05:43;17.38;;;14.82;;
21611;SDS011;47005;52.292;13.452;2023-06-19T07:08:09;16.00;;;13.75;;
21611;SDS011;47005;52.292;13.452;2023-06-19T07:10:34;15.98;;;14.38;;
21611;SDS011;47005;52.292;13.452;2023-06-19T07:13:00;15.48;;;13.85;;
21611;SDS011;47005;52.292;13.452;2023-06-19T07:15:26;15.45;;;13.85;;
21611;SDS011;47005;52.292;13.452;2023-06-19T07:17:51;16.58;;;14.82;;
21611;SDS011;47005;52.292;13.452;2023-06-19T07:20:17;17.05;;;15.35;;
21611;SDS011;47005;52.292;13.452;2023-06-19T07:22:43;18.10;;;14.20;;
21611;SDS011;47005;52.292;13.452;2023-06-19T07:25:10;15.55;;;13.98;;
21611;SDS011;47005;52.292;13.452;2023-06-19T07:27:36;17.35;;;14.75;;
21611;SDS011;47005;52.292;13.452;2023-06-19T07:30:02;15.60;;;13.95;;
21611;SDS011;47005;52.292;13.452;2023-06-19T07:32:28;15.30;;;13.70;;
21611;SDS011;47005;52.292;13.452;2023-06-19T07:34:54;14.45;;;12.93;;
21611;SDS011;47005;52.292;13.452;2023-06-19T07:37:20;15.90;;;14.30;;
21611;SDS011;47005;52.292;13.452;2023-06-19T07:39:46;14.88;;;13.35;;
21611;SDS011;47005;52.292;13.452;2023-06-19T07:42:13;16.90;;;14.48;;
21611;SDS011;47005;52.292;13.452;2023-06-19T07:44:39;15.73;;;14.02;;
21611;SDS011;47005;52.292;13.452;2023-06-19T07:47:06;14.40;;;12.90;;
21611;SDS011;47005;52.292;13.452;2023-06-19T07:49:32;16.60;;;14.90;;
21611;SDS011;47005;52.292;13.452;2023-06-19T07:51:58;16.42;;;14.30;;
21611;SDS011;47005;52.292;13.452;2023-06-19T07:54:24;15.25;;;13.75;;
21611;SDS011;47005;52.292;13.452;2023-06-19T07:56:49;15.07;;;13.60;;
21611;SDS011;47005;52.292;13.452;2023-06-19T07:59:15;15.07;;;13.60;;
21611;SDS011;47005;52.292;13.452;2023-06-19T08:01:42;14.82;;;13.32;;
21611;SDS011;47005;52.292;13.452;2023-06-19T08:04:08;17.88;;;14.38;;
21611;SDS011;47005;52.292;13.452;2023-06-19T08:06:33;14.77;;;13.27;;
21611;SDS011;47005;52.292;13.452;2023-06-19T08:08:59;14.45;;;12.95;;
21611;SDS011;47005;52.292;13.452;2023-06-19T08:11:25;15.65;;;13.48;;
21611;SDS011;47005;52.292;13.452;2023-06-19T08:13:50;16.17;;;13.75;;
21611;SDS011;47005;52.292;13.452;2023-06-19T08:16:16;14.90;;;12.95;;
21611;SDS011;47005;52.292;13.452;2023-06-19T08:18:43;16.65;;;14.05;;
21611;SDS011;47005;52.292;13.452;2023-06-19T08:21:09;14.40;;;12.95;;
21611;SDS011;47005;52.292;13.452;2023-06-19T08:23:35;16.30;;;13.73;;
21611;SDS011;47005;52.292;13.452;2023-06-19T08:26:02;15.23;;;13.73;;
21611;SDS011;47005;52.292;13.452;2023-06-19T08:28:29;15.18;;;13.55;;
21611;SDS011;47005;52.292;13.452;2023-06-19T08:30:58;15.90;;;14.23;;
21611;SDS011;47005;52.292;13.452;2023-06-19T08:33:24;14.50;;;13.10;;
21611;SDS011;47005;52.292;13.452;2023-06-19T08:35:49;14.13;;;12.60;;
21611;SDS011;47005;52.292;13.452;2023-06-19T08:38:15;15.13;;;13.63;;
21611;SDS011;47005;52.292;13.452;2023-06-19T08:40:41;14.82;;;13.32;;
21611;SDS011;47005;52.292;13.452;2023-06-19T08:43:10;15.70;;;13.13;;
21611;SDS011;47005;52.292;13.452;2023-06-19T08:45:36;14.75;;;12.73;;
21611;SDS011;47005;52.292;13.452;2023-06-19T08:48:02;13.93;;;12.55;;
21611;SDS011;47005;52.292;13.452;2023-06-19T08:50:32;14.45;;;13.02;;
21611;SDS011;47005;52.292;13.452;2023-06-19T08:52:58;16.25;;;13.95;;
21611;SDS011;47005;52.292;13.452;2023-06-19T08:55:24;14.90;;;13.38;;
21611;SDS011;47005;52.292;13.452;2023-06-19T08:57:50;15.38;;;13.77;;
21611;SDS011;47005;52.292;13.452;2023-06-19T09:00:26;15.75;;;13.60;;
21611;SDS011;47005;52.292;13.452;2023-06-19T09:02:59;15.23;;;13.73;;
21611;SDS011;47005;52.292;13.452;2023-06-19T09:05:29;14.88;;;13.38;;
21611;SDS011;47005;52.292;13.452;2023-06-19T09:07:59;16.60;;;14.10;;
21611;SDS011;47005;52.292;13.452;2023-06-19T09:10:28;16.85;;;14.27;;
21611;SDS011;47005;52.292;13.452;2023-06-19T09:12:57;13.93;;;12.18;;
21611;SDS011;47005;52.292;13.452;2023-06-19T09:15:31;14.65;;;13.20;;
21611;SDS011;47005;52.292;13.452;2023-06-19T09:18:09;15.60;;;14.00;;
21611;SDS011;47005;52.292;13.452;2023-06-19T09:20:39;16.55;;;13.75;;
21611;SDS011;47005;52.292;13.452;2023-06-19T09:23:13;16.85;;;14.82;;
21611;SDS011;47005;52.292;13.452;2023-06-19T09:25:49;14.88;;;13.43;;
21611;SDS011;47005;52.292;13.452;2023-06-19T09:28:26;17.73;;;14.13;;
21611;SDS011;47005;52.292;13.452;2023-06-19T09:30:56;16.42;;;14.00;;
21611;SDS011;47005;52.292;13.452;2023-06-19T09:33:30;15.50;;;14.00;;
21611;SDS011;47005;52.292;13.452;2023-06-19T09:35:58;16.35;;;14.75;;
21611;SDS011;47005;52.292;13.452;2023-06-19T09:38:46;17.70;;;15.18;;
21611;SDS011;47005;52.292;13.452;2023-06-19T09:41:11;16.48;;;14.27;;
21611;SDS011;47005;52.292;13.452;2023-06-19T09:43:42;17.60;;;14.35;;
21611;SDS011;47005;52.292;13.452;2023-06-19T09:46:09;16.27;;;14.65;;
21611;SDS011;47005;52.292;13.452;2023-06-19T09:48:38;20.55;;;15.70;;
21611;SDS011;47005;52.292;13.452;2023-06-19T09:53:40;17.48;;;15.77;;
21611;SDS011;47005;52.292;13.452;2023-06-19T09:56:08;18.10;;;15.48;;
21611;SDS011;47005;52.292;13.452;2023-06-19T09:58:34;17.20;;;15.50;;
21611;SDS011;47005;52.292;13.452;2023-06-19T10:01:01;15.82;;;14.30;;
21611;SDS011;47005;52.292;13.452;2023-06-19T10:03:30;16.15;;;14.60;;
21611;SDS011;47005;52.292;13.452;2023-06-19T10:05:57;17.63;;;15.88;;
21611;SDS011;47005;52.292;13.452;2023-06-19T10:08:31;18.42;;;16.20;;
21611;SDS011;47005;52.292;13.452;2023-06-19T10:11:03;18.02;;;16.13;;
21611;SDS011;47005;52.292;13.452;2023-06-19T10:13:36;16.95;;;15.07;;
21611;SDS011;47005;52.292;13.452;2023-06-19T10:16:06;19.00;;;16.17;;
21611;SDS011;47005;52.292;13.452;2023-06-19T10:18:43;17.55;;;15.73;;
21611;SDS011;47005;52.292;13.452;2023-06-19T10:21:19;18.73;;;16.83;;
21611;SDS011;47005;52.292;13.452;2023-06-19T10:23:56;18.13;;;15.98;;
21611;SDS011;47005;52.292;13.452;2023-06-19T10:26:31;19.30;;;17.27;;
21611;SDS011;47005;52.292;13.452;2023-06-19T10:29:00;19.23;;;17.30;;
21611;SDS011;47005;52.292;13.452;2023-06-19T10:31:26;18.40;;;16.50;;
21611;SDS011;47005;52.292;13.452;2023-06-19T10:33:53;16.52;;;14.85;;
21611;SDS011;47005;52.292;13.452;2023-06-19T10:36:22;17.75;;;16.13;;
21611;SDS011;47005;52.292;13.452;2023-06-19T10:38:50;19.15;;;15.13;;
21611;SDS011;47005;52.292;13.452;2023-06-19T10:41:20;17.42;;;15.32;;
21611;SDS011;47005;52.292;13.452;2023-06-19T10:43:57;17.50;;;15.18;;
21611;SDS011;47005;52.292;13.452;2023-06-19T10:46:29;20.38;;;15.57;;
21611;SDS011;47005;52.292;13.452;2023-06-19T10:49:03;16.25;;;14.70;;
21611;SDS011;47005;52.292;13.452;2023-06-19T10:51:39;16.52;;;14.77;;
21611;SDS011;47005;52.292;13.452;2023-06-19T10:54:07;16.77;;;14.00;;
21611;SDS011;47005;52.292;13.452;2023-06-19T10:56:33;15.82;;;14.23;;
21611;SDS011;47005;52.292;13.452;2023-06-19T11:02:07;15.20;;;13.43;;
21611;SDS011;47005;52.292;13.452;2023-06-19T11:04:25;16.95;;;14.90;;
21611;SDS011;47005;52.292;13.452;2023-06-19T11:06:53;15.80;;;14.23;;
21611;SDS011;47005;52.292;13.452;2023-06-19T11:09:18;14.40;;;12.90;;
21611;SDS011;47005;52.292;13.452;2023-06-19T11:11:45;17.98;;;14.82;;
21611;SDS011;47005;52.292;13.452;2023-06-19T11:14:12;15.05;;;13.48;;
21611;SDS011;47005;52.292;13.452;2023-06-19T11:16:40;17.73;;;14.75;;
21611;SDS011;47005;52.292;13.452;2023-06-19T11:19:07;15.45;;;13.38;;
21611;SDS011;47005;52.292;13.452;2023-06-19T11:21:48;14.77;;;13.20;;
21611;SDS011;47005;52.292;13.452;2023-06-19T11:24:15;13.63;;;11.65;;
21611;SDS011;47005;52.292;13.452;2023-06-19T11:26:42;13.98;;;12.48;;
21611;SDS011;47005;52.292;13.452;2023-06-19T11:29:21;12.95;;;11.63;;
21611;SDS011;47005;52.292;13.452;2023-06-19T11:31:47;14.50;;;11.50;;
21611;SDS011;47005;52.292;13.452;2023-06-19T11:34:13;12.20;;;10.98;;
21611;SDS011;47005;52.292;13.452;2023-06-19T11:36:40;14.82;;;12.45;;
21611;SDS011;47005;52.292;13.452;2023-06-19T11:39:13;13.25;;;11.95;;
21611;SDS011;47005;52.292;13.452;2023-06-19T11:41:40;12.48;;;11.20;;
21611;SDS011;47005;52.292;13.452;2023-06-19T11:44:09;14.18;;;12.13;;
21611;SDS011;47005;52.292;13.452;2023-06-19T11:46:35;12.93;;;11.63;;
21611;SDS011;47005;52.292;13.452;2023-06-19T11:51:43;11.68;;;10.43;;
21611;SDS011;47005;52.292;13.452;2023-06-19T11:54:10;12.65;;;11.35;;
21611;SDS011;47005;52.292;13.452;2023-06-19T11:56:37;12.55;;;11.32;;
21611;SDS011;47005;52.292;13.452;2023-06-19T11:59:04;13.15;;;11.77;;
21611;SDS011;47005;52.292;13.452;2023-06-19T12:01:31;14.07;;;12.45;;
21611;SDS011;47005;52.292;13.452;2023-06-19T12:03:58;14.00;;;12.48;;
21611;SDS011;47005;52.292;13.452;2023-06-19T12:06:23;15.60;;;12.80;;
21611;SDS011;47005;52.292;13.452;2023-06-19T12:08:50;12.93;;;11.73;;
21611;SDS011;47005;52.292;13.452;2023-06-19T12:11:15;14.43;;;12.98;;
21611;SDS011;47005;52.292;13.452;2023-06-19T12:13:41;12.85;;;11.55;;
21611;SDS011;47005;52.292;13.452;2023-06-19T12:16:07;13.40;;;12.02;;
21611;SDS011;47005;52.292;13.452;2023-06-19T12:18:35;13.27;;;11.98;;
21611;SDS011;47005;52.292;13.452;2023-06-19T12:21:01;12.38;;;11.07;;
21611;SDS011;47005;52.292;13.452;2023-06-19T12:23:26;14.00;;;12.55;;
21611;SDS011;47005;52.292;13.452;2023-06-19T12:25:52;13.45;;;12.05;;
21611;SDS011;47005;52.292;13.452;2023-06-19T12:28:18;13.50;;;12.20;;
21611;SDS011;47005;52.292;13.452;2023-06-19T12:30:46;13.20;;;11.90;;
21611;SDS011;47005;52.292;13.452;2023-06-19T12:33:19;14.80;;;12.43;;
21611;SDS011;47005;52.292;13.452;2023-06-19T12:35:48;13.45;;;12.10;;
21611;SDS011;47005;52.292;13.452;2023-06-19T12:38:14;14.90;;;12.65;;
21611;SDS011;47005;52.292;13.452;2023-06-19T12:40:40;13.43;;;12.23;;
21611;SDS011;47005;52.292;13.452;2023-06-19T12:43:06;11.75;;;10.60;;
21611;SDS011;47005;52.292;13.452;2023-06-19T12:45:32;12.98;;;11.70;;
21611;SDS011;47005;52.292;13.452;2023-06-19T12:47:58;12.32;;;11.13;;
21611;SDS011;47005;52.292;13.452;2023-06-19T12:50:23;12.80;;;11.50;;
21611;SDS011;47005;52.292;13.452;2023-06-19T12:52:50;14.50;;;12.18;;
21611;SDS011;47005;52.292;13.452;2023-06-19T12:55:15;13.38;;;11.70;;
21611;SDS011;47005;52.292;13.452;2023-06-19T12:57:41;13.68;;;12.27;;
21611;SDS011;47005;52.292;13.452;2023-06-19T13:00:10;12.93;;;11.43;;
21611;SDS011;47005;52.292;13.452;2023-06-19T13:02:37;13.88;;;12.52;;
21611;SDS011;47005;52.292;13.452;2023-06-19T13:05:04;12.93;;;11.63;;
21611;SDS011;47005;52.292;13.452;2023-06-19T13:07:31;12.85;;;11.65;;
21611;SDS011;47005;52.292;13.452;2023-06-19T13:09:57;14.05;;;12.68;;
21611;SDS011;47005;52.292;13.452;2023-06-19T13:12:23;13.20;;;11.73;;
21611;SDS011;47005;52.292;13.452;2023-06-19T13:14:49;13.85;;;12.52;;
21611;SDS011;47005;52.292;13.452;2023-06-19T13:17:14;14.48;;;12.77;;
21611;SDS011;47005;52.292;13.452;2023-06-19T13:19:40;12.43;;;11.18;;
21611;SDS011;47005;52.292;13.452;2023-06-19T13:22:06;13.27;;;11.90;;
21611;SDS011;47005;52.292;13.452;2023-06-19T13:24:31;12.25;;;10.95;;
21611;SDS011;47005;52.292;13.452;2023-06-19T13:26:57;14.68;;;11.60;;
21611;SDS011;47005;52.292;13.452;2023-06-19T13:29:22;12.75;;;11.45;;
21611;SDS011;47005;52.292;13.452;2023-06-19T13:31:48;14.05;;;11.23;;
21611;SDS011;47005;52.292;13.452;2023-06-19T13:34:14;17.42;;;11.23;;
21611;SDS011;47005;52.292;13.452;2023-06-19T13:36:41;12.10;;;10.90;;
21611;SDS011;47005;52.292;13.452;2023-06-19T13:39:06;15.48;;;11.23;;
21611;SDS011;47005;52.292;13.452;2023-06-19T13:41:32;13.48;;;11.70;;
21611;SDS011;47005;52.292;13.452;2023-06-19T13:43:59;12.05;;;10.82;;
21611;SDS011;47005;52.292;13.452;2023-06-19T13:46:25;14.27;;;11.85;;
21611;SDS011;47005;52.292;13.452;2023-06-19T13:48:51;13.65;;;10.40;;
21611;SDS011;47005;52.292;13.452;2023-06-19T13:51:17;13.40;;;10.98;;
21611;SDS011;47005;52.292;13.452;2023-06-19T13:53:44;12.77;;;10.70;;
21611;SDS011;47005;52.292;13.452;2023-06-19T13:56:10;12.45;;;11.20;;
21611;SDS011;47005;52.292;13.452;2023-06-19T13:58:37;11.23;;;10.02;;
21611;SDS011;47005;52.292;13.452;2023-06-19T14:01:03;12.05;;;10.85;;
21611;SDS011;47005;52.292;13.452;2023-06-19T14:03:29;12.15;;;10.13;;
21611;SDS011;47005;52.292;13.452;2023-06-19T14:05:54;11.90;;;10.73;;
21611;SDS011;47005;52.292;13.452;2023-06-19T14:08:20;12.48;;;10.18;;
21611;SDS011;47005;52.292;13.452;2023-06-19T14:10:46;12.02;;;9.90;;
21611;SDS011;47005;52.292;13.452;2023-06-19T14:13:11;10.93;;;9.85;;
21611;SDS011;47005;52.292;13.452;2023-06-19T14:15:37;11.35;;;10.15;;
21611;SDS011;47005;52.292;13.452;2023-06-19T14:18:03;10.73;;;9.68;;
21611;SDS011;47005;52.292;13.452;2023-06-19T14:20:29;11.82;;;10.60;;